createdAt,value
2022-08-25T00:01:57.332Z,3.40
2022-08-25T00:07:19.579Z,6.35
2022-08-25T00:12:41.820Z,5.32
2022-08-25T00:18:05.357Z,3.78
2022-08-25T00:23:38.534Z,3.90
2022-08-25T00:29:01.613Z,3.85
2022-08-25T00:34:31.446Z,4.60
2022-08-25T00:39:55.026Z,3.33
2022-08-25T00:45:18.113Z,3.42
2022-08-25T00:50:39.973Z,2.80
2022-08-25T00:56:02.576Z,2.80
2022-08-25T01:01:24.511Z,3.05
2022-08-25T01:06:49.030Z,2.83
2022-08-25T01:12:10.790Z,4.00
2022-08-25T01:17:45.550Z,3.83
2022-08-25T01:23:07.967Z,5.72
2022-08-25T01:28:30.206Z,3.53
2022-08-25T01:33:52.397Z,6.03
2022-08-25T01:39:15.764Z,3.40
2022-08-25T01:44:41.581Z,4.53
2022-08-25T01:50:06.093Z,4.32
2022-08-25T01:55:27.861Z,7.90
2022-08-25T02:00:51.788Z,4.25
2022-08-25T02:06:20.479Z,5.93
2022-08-25T02:11:50.817Z,4.32
2022-08-25T02:17:12.541Z,4.45
2022-08-25T02:22:34.344Z,4.75
2022-08-25T02:27:56.292Z,3.65
2022-08-25T02:33:18.038Z,4.03
2022-08-25T02:38:41.682Z,3.67
2022-08-25T02:44:04.531Z,6.43
2022-08-25T02:49:26.275Z,3.95
2022-08-25T02:54:48.007Z,4.03
2022-08-25T03:00:12.745Z,4.88
2022-08-25T03:05:34.628Z,5.03
2022-08-25T03:10:56.364Z,5.20
2022-08-25T03:16:18.711Z,3.47
2022-08-25T03:21:40.574Z,4.15
2022-08-25T03:27:02.332Z,3.63
2022-08-25T03:32:24.064Z,3.67
2022-08-25T03:37:45.765Z,5.80
2022-08-25T03:43:07.505Z,3.95
2022-08-25T03:48:29.463Z,3.80
2022-08-25T03:53:51.381Z,3.22
2022-08-25T03:59:13.821Z,3.63
2022-08-25T04:04:35.582Z,3.97
2022-08-25T04:09:57.272Z,4.53
2022-08-25T04:15:18.958Z,5.13
2022-08-25T04:20:46.413Z,5.13
2022-08-25T04:26:14.328Z,6.43
2022-08-25T04:31:38.564Z,5.10
2022-08-25T04:37:02.495Z,5.95
2022-08-25T04:42:26.296Z,4.93
2022-08-25T04:47:50.668Z,9.23
2022-08-25T04:53:16.851Z,6.45
2022-08-25T04:58:39.265Z,6.53
2022-08-25T05:04:03.859Z,6.82
2022-08-25T05:09:26.683Z,6.55
2022-08-25T05:14:48.501Z,7.50
2022-08-25T05:20:10.654Z,9.48
2022-08-25T05:25:32.837Z,8.85
2022-08-25T05:30:58.773Z,12.75
2022-08-25T05:36:21.870Z,5.68
2022-08-25T05:41:44.133Z,7.82
2022-08-25T05:47:06.416Z,6.45
2022-08-25T05:52:28.417Z,7.95
2022-08-25T05:57:50.268Z,8.90
2022-08-25T06:03:12.396Z,7.53
2022-08-25T06:08:34.780Z,7.25
2022-08-25T06:13:57.670Z,9.95
2022-08-25T06:19:19.711Z,6.70
2022-08-25T06:24:41.433Z,11.23
2022-08-25T06:30:07.875Z,10.52
2022-08-25T06:35:29.984Z,10.45
2022-08-25T06:40:52.333Z,8.63
2022-08-25T06:46:17.698Z,10.93
2022-08-25T06:51:39.716Z,7.85
2022-08-25T06:57:01.748Z,7.53
2022-08-25T07:02:23.665Z,9.05
2022-08-25T07:07:46.409Z,8.77
2022-08-25T07:13:08.134Z,8.32
2022-08-25T07:18:30.110Z,7.85
2022-08-25T07:23:52.461Z,12.63
2022-08-25T07:29:20.834Z,7.05
2022-08-25T07:35:12.580Z,7.45
2022-08-25T07:40:38.144Z,7.75
2022-08-25T07:46:06.849Z,6.88
2022-08-25T07:51:28.720Z,10.90
2022-08-25T07:56:50.445Z,10.65
2022-08-25T08:02:18.902Z,12.15
2022-08-25T08:07:43.199Z,10.02
2022-08-25T08:13:07.360Z,14.23
2022-08-25T08:18:29.471Z,7.40
2022-08-25T08:23:56.668Z,7.95
2022-08-25T08:29:22.433Z,8.82
2022-08-25T08:34:44.281Z,8.50
2022-08-25T08:40:07.621Z,7.85
2022-08-25T08:45:43.985Z,9.70
2022-08-25T08:51:11.135Z,8.98
2022-08-25T08:56:45.205Z,11.05
2022-08-25T09:02:38.607Z,11.93
2022-08-25T09:08:10.478Z,8.80
2022-08-25T09:13:44.791Z,10.27
2022-08-25T09:19:31.329Z,9.65
2022-08-25T09:31:32.499Z,7.95
2022-08-25T09:36:54.249Z,7.63
2022-08-25T09:42:23.750Z,11.27
2022-08-25T09:47:46.109Z,8.18
2022-08-25T09:53:17.049Z,13.07
2022-08-25T09:58:39.426Z,7.38
2022-08-25T10:04:05.120Z,7.05
2022-08-25T10:09:34.720Z,9.23
2022-08-25T10:14:56.779Z,8.18
2022-08-25T10:20:25.056Z,9.13
2022-08-25T10:25:59.462Z,7.53
2022-08-25T10:31:36.831Z,7.72
2022-08-25T10:37:32.641Z,4.93
2022-08-25T10:43:12.871Z,5.68
2022-08-25T10:48:50.562Z,5.03
2022-08-25T10:54:39.113Z,4.97
2022-08-25T11:00:14.368Z,7.70
2022-08-25T11:05:46.466Z,4.78
2022-08-25T11:11:32.284Z,8.50
2022-08-25T11:17:10.520Z,5.97
2022-08-25T11:22:41.640Z,4.47
2022-08-25T11:28:07.321Z,4.40
2022-08-25T11:33:31.031Z,4.10
2022-08-25T11:39:16.635Z,4.28
2022-08-25T11:44:51.791Z,4.35
2022-08-25T11:50:31.176Z,3.47
2022-08-25T11:55:56.111Z,3.97
2022-08-25T12:01:40.145Z,3.40
2022-08-25T12:07:11.011Z,3.10
2022-08-25T12:12:37.596Z,3.25
2022-08-25T12:18:40.040Z,3.22
2022-08-25T12:24:12.864Z,3.63
2022-08-25T12:29:46.118Z,3.25
2022-08-25T12:35:37.334Z,2.88
2022-08-25T12:41:12.109Z,4.28
2022-08-25T12:46:38.543Z,3.58
2022-08-25T12:52:16.499Z,3.17
2022-08-25T12:57:57.748Z,3.20
2022-08-25T13:09:42.540Z,4.07
2022-08-25T13:15:04.835Z,2.50
2022-08-25T13:20:29.073Z,3.03
2022-08-25T13:25:52.990Z,5.40
2022-08-25T13:31:19.704Z,3.38
2022-08-25T13:37:05.774Z,3.03
2022-08-25T13:42:29.054Z,3.08
2022-08-25T13:48:20.795Z,2.20
2022-08-25T13:53:35.082Z,2.03
2022-08-25T13:58:59.680Z,2.40
2022-08-25T14:04:50.480Z,4.20
2022-08-25T14:10:32.511Z,3.80
2022-08-25T14:15:54.721Z,4.22
2022-08-25T14:21:20.252Z,2.10
2022-08-25T14:26:54.500Z,3.33
2022-08-25T14:32:17.110Z,3.45
2022-08-25T14:37:39.022Z,3.55
2022-08-25T14:43:02.523Z,5.30
2022-08-25T14:48:31.662Z,2.30
2022-08-25T14:53:56.570Z,2.63
2022-08-25T14:59:18.580Z,4.10
2022-08-25T15:04:40.463Z,11.10
2022-08-25T15:10:13.634Z,2.78
2022-08-25T15:15:40.086Z,2.35
2022-08-25T15:21:14.545Z,4.13
2022-08-25T15:26:59.259Z,5.88
2022-08-25T15:32:20.995Z,5.68
2022-08-25T15:37:42.918Z,4.13
2022-08-25T15:43:05.628Z,2.97
2022-08-25T15:48:28.878Z,3.10
2022-08-25T15:53:50.712Z,4.57
2022-08-25T15:59:13.523Z,2.80
2022-08-25T16:04:36.242Z,3.58
2022-08-25T16:09:59.112Z,3.10
2022-08-25T16:15:23.834Z,2.80
2022-08-25T16:20:50.837Z,3.33
2022-08-25T16:26:13.025Z,4.95
2022-08-25T16:31:35.058Z,3.40
2022-08-25T16:36:56.874Z,2.42
2022-08-25T16:42:20.722Z,7.80
2022-08-25T16:47:43.312Z,2.50
2022-08-25T16:53:23.964Z,2.85
2022-08-25T16:58:45.929Z,2.83
2022-08-25T17:04:09.187Z,5.82
2022-08-25T17:09:32.056Z,3.75
2022-08-25T17:14:54.254Z,4.63
2022-08-25T17:20:17.162Z,2.22
2022-08-25T17:25:41.248Z,3.08
2022-08-25T17:31:05.109Z,3.83
2022-08-25T17:36:27.558Z,3.60
2022-08-25T17:41:50.518Z,3.88
2022-08-25T17:47:12.527Z,6.75
2022-08-25T17:52:34.356Z,3.17
2022-08-25T17:57:56.292Z,6.20
2022-08-25T18:03:19.354Z,2.67
2022-08-25T18:08:43.393Z,2.60
2022-08-25T18:14:05.126Z,5.60
2022-08-25T18:19:26.952Z,3.63
2022-08-25T18:24:48.710Z,2.90
2022-08-25T18:30:10.972Z,6.30
2022-08-25T18:35:32.966Z,4.85
2022-08-25T18:40:56.793Z,2.80
2022-08-25T18:46:18.921Z,4.78
2022-08-25T18:51:45.908Z,3.17
2022-08-25T18:57:08.271Z,3.10
2022-08-25T19:02:30.863Z,4.43
2022-08-25T19:07:52.805Z,4.57
2022-08-25T19:13:14.769Z,5.45
2022-08-25T19:18:36.625Z,4.05
2022-08-25T19:23:59.429Z,4.05
2022-08-25T19:29:21.561Z,4.32
2022-08-25T19:34:47.195Z,4.03
2022-08-25T19:40:13.349Z,3.30
2022-08-25T19:45:40.996Z,4.32
2022-08-25T19:51:03.326Z,4.22
2022-08-25T19:56:25.155Z,6.70
2022-08-25T20:01:49.277Z,4.50
2022-08-25T20:07:12.343Z,7.32
2022-08-25T20:12:35.488Z,7.45
2022-08-25T20:17:57.999Z,6.60
2022-08-25T20:23:38.440Z,7.95
2022-08-25T20:29:00.534Z,6.57
2022-08-25T20:34:22.504Z,5.88
2022-08-25T20:39:45.790Z,5.53
2022-08-25T20:45:08.740Z,4.55
2022-08-25T20:50:30.600Z,5.97
2022-08-25T20:55:53.151Z,4.93
2022-08-25T21:01:23.035Z,3.22
2022-08-25T21:06:45.761Z,7.88
2022-08-25T21:12:07.638Z,3.58
2022-08-25T21:17:30.071Z,6.97
2022-08-25T21:22:53.258Z,4.45
2022-08-25T21:28:15.187Z,8.75
2022-08-25T21:33:37.302Z,4.70
2022-08-25T21:39:00.234Z,7.22
2022-08-25T21:44:22.345Z,4.07
2022-08-25T21:49:44.086Z,4.22
2022-08-25T21:55:06.328Z,4.82
2022-08-25T22:00:30.710Z,3.42
2022-08-25T22:05:52.754Z,6.15
2022-08-25T22:11:16.313Z,3.70
2022-08-25T22:16:39.263Z,3.50
2022-08-25T22:22:01.445Z,6.57
2022-08-25T22:27:23.757Z,4.78
2022-08-25T22:32:45.696Z,6.50
2022-08-25T22:38:08.277Z,6.35
2022-08-25T22:43:34.403Z,6.30
2022-08-25T22:48:56.458Z,8.27
2022-08-25T22:54:19.300Z,7.50
2022-08-25T22:59:41.079Z,5.15
2022-08-25T23:05:03.662Z,7.57
2022-08-25T23:10:28.085Z,4.95
2022-08-25T23:15:51.054Z,6.60
2022-08-25T23:21:37.914Z,6.07
2022-08-25T23:27:06.547Z,6.18
2022-08-25T23:32:29.106Z,4.57
2022-08-25T23:37:51.381Z,5.28
2022-08-25T23:43:13.581Z,5.35
2022-08-25T23:48:35.612Z,3.85
2022-08-25T23:53:57.753Z,3.80
2022-08-25T23:59:24.510Z,5.00
